Terminal Aerodrome Forecast
Issued by NWS

Home | Current Version | Previous Version | Text Only | Print | Product List | Glossary On
Versions: 1 2 3 4 5 6 7 8 9 10 11 12 13 14 15 16 17 18 19
807
FTUS43 KICT 231126
TAFCNU
TAF
KCNU 231126Z 2312/2412 VRB04KT P6SM SKC
      TEMPO 2312/2314 5SM BR
     FM232000 17005KT P6SM SKC
     FM240000 14010KT P6SM SCT250=

USA.gov is the U.S. government's official web portal to all federal, state and local government web resources and services.